SNA weather

John Wayne Airport-Orange County Airport
Santa Ana, California, United States

Public forecast

Using degrees Fahrenheit for public forecast. Weather courtesy of forecast.io.

METAR (pilot weather report)

Retrieved 2019/03/22 15:53 UTC (7 minutes ago):

KSNA 221553Z 00000KT 10SM FEW016 BKN023 BKN180 14/08 A3019 RMK AO2 SLP221 T01390078

TAF (pilot weather forecast)

Retrieved 2019/03/22 12:22 UTC (4 hours ago):

TAF KSNA 221120Z 2212/2312 VRB05KT P6SM SCT020 BKN040 TEMPO 2212/2216 BKN022 FM221900 23008KT P6SM SCT040 FM230200 VRB04KT P6SM SCT030 FM230700 VRB04KT P6SM BKN020